Time;durP1;ratioP1;P1;durP2;ratioP2;P2;SDS_P1;SDS_P2;PMS_P1;PMS_P2;Temp;Humidity;BMP_temperature;BMP_pressure;BME280_temperature;BME280_humidity;BME280_pressure;Samples;Min_cycle;Max_cycle;Signal;HPM_P1;HPM_P2
2023/09/10 00:01:03;;;;;;;12.73;8.35;;;;;;;9.77;100.00;99824.50;4845794;29;20420;-58
2023/09/10 00:03:29;;;;;;;12.75;8.75;;;;;;;9.74;100.00;99826.78;4862125;29;20057;-56
2023/09/10 00:05:55;;;;;;;11.90;8.07;;;;;;;9.70;100.00;99825.59;4861979;29;20045;-59
2023/09/10 00:08:20;;;;;;;12.25;8.73;;;;;;;9.68;100.00;99831.13;4860628;29;20511;-59
2023/09/10 00:10:46;;;;;;;13.98;8.43;;;;;;;9.61;100.00;99827.72;4860617;29;20060;-61
2023/09/10 00:13:12;;;;;;;19.50;9.27;;;;;;;9.62;100.00;99834.66;4861805;29;20128;-58
2023/09/10 00:15:38;;;;;;;13.50;8.80;;;;;;;9.62;100.00;99834.66;4861413;29;20522;-57
2023/09/10 00:18:04;;;;;;;13.15;9.25;;;;;;;9.56;100.00;99832.88;4861790;29;20136;-58
2023/09/10 00:20:29;;;;;;;14.85;8.65;;;;;;;9.50;100.00;99831.09;4861491;29;20515;-60
2023/09/10 00:22:56;;;;;;;12.25;8.15;;;;;;;9.49;100.00;99837.41;4844986;29;20067;-57
2023/09/10 00:25:22;;;;;;;14.43;9.00;;;;;;;9.46;100.00;99833.38;4861463;29;20044;-59
2023/09/10 00:27:47;;;;;;;14.77;9.45;;;;;;;9.41;100.00;99832.41;4861525;29;20058;-58
2023/09/10 00:30:13;;;;;;;14.25;8.50;;;;;;;9.38;100.00;99827.53;4860159;29;20060;-58
2023/09/10 00:32:39;;;;;;;14.55;8.98;;;;;;;9.41;100.00;99827.09;4860261;29;20140;-57
2023/09/10 00:35:05;;;;;;;17.90;8.93;;;;;;;9.39;100.00;99831.84;4860283;29;20252;-58
2023/09/10 00:37:30;;;;;;;14.73;9.07;;;;;;;9.35;100.00;99833.28;4861525;29;20049;-57
2023/09/10 00:39:56;;;;;;;18.02;9.93;;;;;;;9.31;100.00;99833.72;4859906;29;20076;-58
2023/09/10 00:42:23;;;;;;;13.30;9.35;;;;;;;9.32;100.00;99832.72;4860008;29;20579;-57
2023/09/10 00:44:48;;;;;;;15.07;9.48;;;;;;;9.33;100.00;99828.22;4844506;29;20048;-57
2023/09/10 00:47:14;;;;;;;17.40;10.45;;;;;;;9.37;100.00;99832.03;4861125;29;20049;-57
2023/09/10 00:49:40;;;;;;;15.63;9.85;;;;;;;9.46;100.00;99836.00;4859614;29;20046;-58
2023/09/10 00:52:06;;;;;;;12.18;8.65;;;;;;;9.57;100.00;99833.69;4859711;29;20059;-54
2023/09/10 00:54:32;;;;;;;16.55;10.23;;;;;;;9.67;100.00;99829.47;4859737;29;20105;-59
2023/09/10 00:57:02;;;;;;;16.02;11.50;;;;;;;9.81;100.00;99839.94;4859092;29;20113;-58
2023/09/10 00:59:31;;;;;;;15.45;11.77;;;;;;;9.91;100.00;99832.25;4860803;29;20507;-57
2023/09/10 01:02:00;;;;;;;18.67;12.88;;;;;;;10.02;99.92;99842.13;4860791;29;20046;-58
2023/09/10 01:04:26;;;;;;;15.73;11.20;;;;;;;10.12;99.49;99842.41;4859371;29;20053;-57
2023/09/10 01:06:52;;;;;;;15.10;9.05;;;;;;;10.22;99.04;99833.94;4859047;29;20530;-58
2023/09/10 01:09:17;;;;;;;12.73;8.85;;;;;;;10.27;98.72;99836.75;4859396;29;20144;-57
2023/09/10 01:11:43;;;;;;;12.00;8.57;;;;;;;10.33;98.13;99832.41;4859414;29;20042;-58
2023/09/10 01:14:12;;;;;;;15.23;9.75;;;;;;;10.38;97.76;99836.00;4859264;29;20461;-60
2023/09/10 01:16:42;;;;;;;11.85;8.27;;;;;;;10.42;97.14;99839.81;4859265;29;20049;-56
2023/09/10 01:19:24;;;;;;;10.60;8.13;;;;;;;10.40;96.55;99833.09;4860451;29;20073;-57
2023/09/10 01:21:55;;;;;;;13.18;8.93;;;;;;;10.50;96.89;99829.91;4860624;29;20049;-59
2023/09/10 01:24:45;;;;;;;9.80;8.13;;;;;;;10.58;96.13;99827.75;4860421;29;20045;-57
2023/09/10 01:27:11;;;;;;;14.70;8.43;;;;;;;10.62;95.77;99826.28;4860441;29;20057;-58
2023/09/10 01:29:38;;;;;;;12.27;9.05;;;;;;;10.64;95.26;99833.97;4860438;29;20298;-57
2023/09/10 01:32:05;;;;;;;11.88;7.65;;;;;;;10.63;94.53;99827.06;4860363;29;20408;-57
2023/09/10 01:34:44;;;;;;;13.18;7.55;;;;;;;10.59;94.87;99829.38;4860204;29;20049;-58
2023/09/10 01:37:22;;;;;;;12.75;8.20;;;;;;;10.62;95.49;99830.78;4858932;29;20529;-58
2023/09/10 01:39:51;;;;;;;13.45;7.88;;;;;;;10.66;94.92;99835.38;4860028;29;20118;-56
2023/09/10 01:42:17;;;;;;;9.95;7.45;;;;;;;10.63;94.72;99832.38;4859037;29;20046;-57
2023/09/10 01:44:43;;;;;;;10.80;7.93;;;;;;;10.62;94.87;99834.22;4859103;29;20048;-58
2023/09/10 01:47:09;;;;;;;11.52;7.20;;;;;;;10.58;94.62;99829.59;4858617;29;20053;-57
2023/09/10 01:49:35;;;;;;;10.32;6.57;;;;;;;10.59;94.17;99831.19;4858485;29;20135;-59
2023/09/10 01:52:01;;;;;;;12.73;7.25;;;;;;;10.55;93.98;99830.03;4859896;29;20057;-58
2023/09/10 01:54:26;;;;;;;8.82;6.47;;;;;;;10.56;94.60;99823.69;4828171;29;20049;-58
2023/09/10 01:56:52;;;;;;;8.77;6.75;;;;;;;10.53;94.31;99819.69;4858854;29;20053;-57
2023/09/10 01:59:17;;;;;;;11.50;7.68;;;;;;;10.55;94.47;99822.09;4858604;29;20052;-59
2023/09/10 02:01:43;;;;;;;11.13;7.18;;;;;;;10.57;94.71;99820.03;4858526;29;20045;-58
2023/09/10 02:04:09;;;;;;;8.90;6.40;;;;;;;10.55;94.02;99822.91;4859874;29;20420;-58
2023/09/10 02:06:35;;;;;;;9.30;6.28;;;;;;;10.57;94.48;99820.84;4859160;29;20046;-59
2023/09/10 02:09:01;;;;;;;8.40;6.88;;;;;;;10.58;94.08;99825.09;4858261;29;20052;-59
2023/09/10 02:11:27;;;;;;;10.90;7.00;;;;;;;10.58;94.00;99826.94;4859647;29;20046;-58
2023/09/10 02:13:53;;;;;;;9.88;7.20;;;;;;;10.57;94.21;99826.13;4858211;29;20064;-57
2023/09/10 02:16:19;;;;;;;11.38;6.72;;;;;;;10.56;93.89;99816.56;4858400;29;20045;-58
2023/09/10 02:18:45;;;;;;;10.50;7.85;;;;;;;10.60;94.20;99819.56;4858526;29;20136;-57
2023/09/10 02:21:31;;;;;;;10.52;7.30;;;;;;;10.63;94.06;99827.88;4858776;29;20109;-58
2023/09/10 02:23:56;;;;;;;11.98;8.10;;;;;;;10.61;94.01;99823.84;4858352;29;20049;-58
2023/09/10 02:26:22;;;;;;;11.30;7.18;;;;;;;10.62;93.88;99823.63;4842945;29;20531;-59
2023/09/10 02:28:47;;;;;;;13.73;8.15;;;;;;;10.63;93.90;99825.22;4857964;29;20077;-57
2023/09/10 02:31:13;;;;;;;10.35;7.18;;;;;;;10.67;94.26;99828.22;4858416;29;20046;-60
2023/09/10 02:33:39;;;;;;;11.93;7.85;;;;;;;10.61;93.67;99831.78;4859738;29;20064;-58
2023/09/10 02:36:06;;;;;;;8.85;7.07;;;;;;;10.65;93.94;99835.63;4858049;29;20463;-58
2023/09/10 02:38:34;;;;;;;11.68;7.90;;;;;;;10.67;94.34;99830.88;4858167;29;20056;-58
2023/09/10 02:41:01;;;;;;;12.50;8.47;;;;;;;10.66;93.82;99830.06;4858068;29;20113;-59
2023/09/10 02:43:27;;;;;;;13.15;8.60;;;;;;;10.66;94.29;99834.56;4858106;29;20784;-57
2023/09/10 02:45:52;;;;;;;13.65;9.30;;;;;;;10.72;94.02;99824.91;4858019;29;20499;-58
2023/09/10 02:48:18;;;;;;;11.32;8.57;;;;;;;10.79;93.55;99825.59;4857965;29;20564;-54
2023/09/10 02:50:43;;;;;;;10.07;8.05;;;;;;;10.81;93.76;99828.84;4842549;29;20144;-60
2023/09/10 02:53:09;;;;;;;11.35;8.52;;;;;;;10.89;93.74;99831.97;4859381;29;20093;-58
2023/09/10 02:55:35;;;;;;;11.25;8.40;;;;;;;10.86;93.64;99836.94;4842587;29;20048;-57
2023/09/10 02:58:00;;;;;;;13.90;8.65;;;;;;;10.79;93.95;99828.25;4857910;29;20186;-58
2023/09/10 03:00:26;;;;;;;12.85;8.63;;;;;;;10.78;94.06;99827.44;4857864;29;20546;-58
2023/09/10 03:02:56;;;;;;;15.00;9.35;;;;;;;10.82;94.15;99836.56;4857944;29;20049;-58
2023/09/10 03:05:22;;;;;;;12.77;8.05;;;;;;;10.87;93.55;99830.59;4857857;29;20049;-58
2023/09/10 03:07:53;;;;;;;11.60;8.68;;;;;;;10.92;93.71;99836.03;4857347;29;20041;-59
2023/09/10 03:10:19;;;;;;;12.07;8.18;;;;;;;10.95;93.22;99834.75;4842289;29;20136;-58
2023/09/10 03:12:45;;;;;;;11.85;8.60;;;;;;;10.98;92.84;99839.59;4857806;29;20504;-58
2023/09/10 03:15:11;;;;;;;11.57;8.52;;;;;;;11.01;93.33;99834.63;4859215;29;20045;-59
2023/09/10 03:17:37;;;;;;;12.73;8.90;;;;;;;10.99;93.17;99835.91;4859077;29;20147;-58
2023/09/10 03:20:04;;;;;;;13.50;8.48;;;;;;;10.98;93.26;99837.75;4859596;29;20049;-59
2023/09/10 03:22:30;;;;;;;12.63;8.98;;;;;;;11.04;92.71;99838.69;4861498;29;20222;-59
2023/09/10 03:24:57;;;;;;;13.55;8.40;;;;;;;11.03;92.51;99832.56;4862690;29;20496;-60
2023/09/10 03:27:22;;;;;;;12.40;8.52;;;;;;;11.07;92.34;99839.03;4845935;29;20273;-58
2023/09/10 03:29:50;;;;;;;13.65;8.57;;;;;;;11.10;92.25;99838.56;4861297;29;20057;-58
2023/09/10 03:32:16;;;;;;;12.27;8.88;;;;;;;11.09;91.81;99834.31;4861189;29;20066;-58
2023/09/10 03:34:42;;;;;;;14.38;8.77;;;;;;;11.13;91.80;99832.00;4845797;29;20057;-59
2023/09/10 03:37:08;;;;;;;10.82;8.60;;;;;;;11.14;92.50;99829.09;4860710;29;20049;-59
2023/09/10 03:39:36;;;;;;;11.73;8.15;;;;;;;11.14;92.07;99829.09;4845243;29;20471;-57
2023/09/10 03:42:02;;;;;;;11.80;8.63;;;;;;;11.18;91.82;99829.47;4860947;29;20049;-58
2023/09/10 03:44:28;;;;;;;13.07;9.10;;;;;;;11.24;91.43;99833.84;4860907;29;20045;-58
2023/09/10 03:46:54;;;;;;;14.38;8.68;;;;;;;11.26;91.19;99826.44;4861029;29;20132;-54
2023/09/10 03:49:20;;;;;;;11.85;8.50;;;;;;;11.25;90.98;99826.69;4860942;29;20144;-57
2023/09/10 03:51:47;;;;;;;13.75;9.52;;;;;;;11.28;91.18;99828.88;4860886;29;20057;-58
2023/09/10 03:54:13;;;;;;;13.75;9.10;;;;;;;11.31;91.27;99829.22;4845454;29;20144;-56
2023/09/10 03:56:39;;;;;;;11.93;8.65;;;;;;;11.35;90.76;99829.56;4862094;29;20077;-57
2023/09/10 03:59:08;;;;;;;13.57;8.38;;;;;;;11.35;90.19;99834.88;4860680;29;20086;-57
2023/09/10 04:01:35;;;;;;;11.68;8.63;;;;;;;11.34;90.49;99825.31;4860527;29;20086;-57
2023/09/10 04:04:01;;;;;;;12.00;8.55;;;;;;;11.36;90.46;99832.00;4860582;29;20102;-57
2023/09/10 04:06:27;;;;;;;15.98;9.57;;;;;;;11.39;90.39;99837.91;4861818;29;20542;-51
2023/09/10 04:08:52;;;;;;;13.85;9.50;;;;;;;11.43;90.41;99836.38;4860532;29;20045;-58
2023/09/10 04:11:18;;;;;;;12.98;8.80;;;;;;;11.43;90.52;99836.38;4861744;29;20552;-57
2023/09/10 04:13:44;;;;;;;13.75;9.45;;;;;;;11.49;90.23;99838.91;4860606;29;20053;-57
2023/09/10 04:16:09;;;;;;;14.05;9.15;;;;;;;11.47;89.88;99846.31;4861600;29;20064;-59
2023/09/10 04:18:35;;;;;;;10.40;7.72;;;;;;;11.52;90.08;99838.44;4860492;29;20041;-58
2023/09/10 04:21:04;;;;;;;12.45;8.43;;;;;;;11.53;90.00;99842.75;4860439;29;20095;-58
2023/09/10 04:23:30;;;;;;;13.77;9.65;;;;;;;11.55;90.41;99837.97;4861871;29;20049;-58
2023/09/10 04:25:56;;;;;;;17.02;10.02;;;;;;;11.58;89.96;99845.47;4860487;29;20059;-58
2023/09/10 04:28:22;;;;;;;13.80;9.07;;;;;;;11.61;89.18;99849.53;4860239;29;20474;-59
2023/09/10 04:30:48;;;;;;;13.70;8.98;;;;;;;11.57;89.42;99846.53;4860047;29;20102;-59
2023/09/10 04:33:16;;;;;;;16.23;9.23;;;;;;;11.59;89.32;99839.16;4859375;29;20082;-56
2023/09/10 04:35:53;;;;;;;11.88;8.70;;;;;;;11.64;89.63;99837.63;4860085;29;20056;-59
2023/09/10 04:38:20;;;;;;;12.18;9.00;;;;;;;11.66;89.47;99841.66;4860206;29;20113;-58
2023/09/10 04:40:46;;;;;;;14.85;9.38;;;;;;;11.71;88.95;99839.13;4859670;29;20156;-56
2023/09/10 04:43:12;;;;;;;14.15;8.93;;;;;;;11.77;89.32;99840.84;4861275;29;20140;-56
2023/09/10 04:45:38;;;;;;;12.73;9.02;;;;;;;11.78;89.12;99845.09;4860936;29;20045;-60
2023/09/10 04:48:04;;;;;;;13.30;9.40;;;;;;;11.81;89.65;99847.31;4844550;29;20136;-57
2023/09/10 04:50:31;;;;;;;13.45;9.50;;;;;;;11.79;89.06;99846.75;4859728;29;20516;-59
2023/09/10 04:53:00;;;;;;;15.90;9.80;;;;;;;11.82;89.68;99838.31;4859853;29;20053;-58
2023/09/10 04:55:26;;;;;;;14.40;9.10;;;;;;;11.86;88.32;99851.16;4844361;29;20077;-59
2023/09/10 04:57:51;;;;;;;12.30;8.57;;;;;;;11.92;88.97;99856.31;4859560;29;20092;-59
2023/09/10 05:00:17;;;;;;;11.35;8.13;;;;;;;11.94;88.10;99851.59;4844282;29;20086;-57
2023/09/10 05:02:43;;;;;;;12.73;8.32;;;;;;;11.97;88.24;99847.63;4861099;29;20057;-58
2023/09/10 05:05:09;;;;;;;11.80;7.97;;;;;;;11.95;87.94;99841.78;4859511;29;20045;-59
2023/09/10 05:07:35;;;;;;;14.00;8.93;;;;;;;11.96;87.22;99843.38;4859550;29;20182;-58
2023/09/10 05:10:00;;;;;;;11.55;8.15;;;;;;;11.96;87.22;99841.53;4859277;29;20060;-62
2023/09/10 05:12:26;;;;;;;12.00;7.80;;;;;;;11.95;87.06;99841.78;4859376;29;20049;-57
2023/09/10 05:14:52;;;;;;;12.25;8.45;;;;;;;12.01;87.76;99840.81;4860519;29;20045;-58
2023/09/10 05:17:17;;;;;;;11.80;7.57;;;;;;;12.06;87.42;99838.28;4859205;29;20049;-57
2023/09/10 05:19:43;;;;;;;12.27;8.48;;;;;;;12.08;87.63;99838.03;4859055;29;20428;-58
2023/09/10 05:22:09;;;;;;;10.18;7.60;;;;;;;12.11;86.71;99840.22;4844186;29;20049;-58
2023/09/10 05:24:35;;;;;;;12.48;7.97;;;;;;;12.14;85.75;99840.53;4859197;29;20094;-58
2023/09/10 05:27:02;;;;;;;11.73;7.25;;;;;;;12.23;85.43;99833.00;4859010;29;20045;-58
2023/09/10 05:29:28;;;;;;;10.43;6.82;;;;;;;12.28;85.33;99838.41;4858983;29;20452;-58
2023/09/10 05:31:54;;;;;;;10.80;7.50;;;;;;;12.35;84.50;99838.28;4858794;29;20053;-57
2023/09/10 05:34:20;;;;;;;13.20;7.43;;;;;;;12.37;84.68;99842.31;4843629;29;20045;-55
2023/09/10 05:36:47;;;;;;;10.05;6.90;;;;;;;12.42;84.28;99839.75;4859017;29;20081;-58
2023/09/10 05:39:13;;;;;;;10.93;7.18;;;;;;;12.45;83.18;99843.78;4860304;29;20053;-57
2023/09/10 05:41:39;;;;;;;9.75;7.10;;;;;;;12.50;83.42;99842.03;4858946;29;20533;-55
2023/09/10 05:44:05;;;;;;;13.50;7.07;;;;;;;12.53;82.87;99862.03;4828272;29;20045;-58
2023/09/10 05:46:30;;;;;;;13.32;7.00;;;;;;;12.47;82.56;99847.00;4858838;29;20154;-58
2023/09/10 05:48:56;;;;;;;9.73;7.07;;;;;;;12.60;83.12;99844.06;4860167;29;20053;-58
2023/09/10 05:51:22;;;;;;;9.93;7.68;;;;;;;12.67;81.88;99854.53;4858983;29;20050;-58
2023/09/10 05:53:47;;;;;;;11.98;7.80;;;;;;;12.72;81.77;99846.66;4860280;29;20411;-58
2023/09/10 05:56:13;;;;;;;11.13;7.25;;;;;;;12.80;81.29;99846.28;4843393;29;20057;-60
2023/09/10 05:58:39;;;;;;;10.48;7.50;;;;;;;12.87;80.94;99851.44;4860186;29;20125;-57
2023/09/10 06:01:05;;;;;;;9.68;7.03;;;;;;;12.92;79.79;99859.50;4858552;29;20059;-58
2023/09/10 06:03:31;;;;;;;9.98;7.63;;;;;;;12.95;80.02;99851.03;4860063;29;20046;-57
2023/09/10 06:05:58;;;;;;;9.90;7.43;;;;;;;12.95;79.19;99851.03;4858477;29;20049;-60
2023/09/10 06:08:24;;;;;;;7.88;6.70;;;;;;;13.05;78.82;99856.50;4858499;29;20050;-57
2023/09/10 06:10:50;;;;;;;10.30;7.15;;;;;;;13.07;77.51;99848.28;4858295;29;20075;-59
2023/09/10 06:13:15;;;;;;;9.75;7.07;;;;;;;13.09;77.91;99854.19;4858456;29;20094;-54
2023/09/10 06:15:41;;;;;;;9.73;6.18;;;;;;;13.15;77.01;99856.69;4858610;29;20478;-57
2023/09/10 06:18:07;;;;;;;9.73;7.10;;;;;;;13.24;76.27;99857.09;4859789;29;20053;-56
2023/09/10 06:20:33;;;;;;;11.95;6.45;;;;;;;13.24;74.86;99857.09;4858102;29;20056;-59
2023/09/10 06:22:59;;;;;;;7.80;6.65;;;;;;;13.28;75.20;99854.75;4858081;29;20106;-57
2023/09/10 06:25:25;;;;;;;7.55;6.13;;;;;;;13.36;73.75;99857.03;4842268;29;20045;-61
2023/09/10 06:27:52;;;;;;;9.05;6.32;;;;;;;13.40;73.93;99858.94;4856403;29;20086;-56
2023/09/10 06:30:17;;;;;;;8.50;6.18;;;;;;;13.50;74.18;99857.47;4857631;29;20050;-59
2023/09/10 06:32:43;;;;;;;7.80;5.97;;;;;;;13.50;73.05;99855.63;4855957;29;20128;-58
2023/09/10 06:35:09;;;;;;;7.40;5.60;;;;;;;13.55;72.54;99847.69;4856223;29;20431;-59
2023/09/10 06:37:35;;;;;;;8.23;6.00;;;;;;;13.55;72.58;99853.00;4841819;29;20049;-56
2023/09/10 06:40:01;;;;;;;6.93;6.18;;;;;;;13.68;72.66;99848.38;4856907;29;20070;-55
2023/09/10 06:42:28;;;;;;;9.98;6.38;;;;;;;13.73;72.42;99856.44;4857998;29;20065;-58
2023/09/10 06:45:07;;;;;;;10.20;6.47;;;;;;;13.71;72.39;99845.25;4856770;29;20571;-58
2023/09/10 06:47:33;;;;;;;7.00;5.38;;;;;;;13.75;72.36;99852.50;4857924;29;20085;-56
2023/09/10 06:49:59;;;;;;;7.80;5.95;;;;;;;13.83;72.23;99846.75;4857811;29;20059;-58
2023/09/10 06:52:24;;;;;;;8.25;6.30;;;;;;;13.89;71.58;99844.16;4858669;29;20496;-59
2023/09/10 06:54:50;;;;;;;9.05;5.95;;;;;;;14.04;71.06;99847.00;4859257;29;20317;-58
2023/09/10 06:57:16;;;;;;;7.90;6.43;;;;;;;14.16;71.46;99852.19;4865151;29;20049;-58
2023/09/10 06:59:41;;;;;;;7.07;5.97;;;;;;;14.23;70.78;99852.78;4865151;29;20072;-59
2023/09/10 07:02:07;;;;;;;8.57;5.95;;;;;;;14.21;69.94;99860.25;4865399;29;20045;-57
2023/09/10 07:04:33;;;;;;;7.47;5.70;;;;;;;14.23;70.65;99858.91;4864445;29;20069;-57
2023/09/10 07:06:58;;;;;;;9.52;6.63;;;;;;;14.26;70.61;99847.75;4865066;29;20508;-58
2023/09/10 07:09:24;;;;;;;7.00;5.88;;;;;;;14.30;70.48;99853.41;4865230;29;20049;-59
2023/09/10 07:11:54;;;;;;;7.25;5.88;;;;;;;14.34;70.04;99856.38;4865212;29;20101;-58
2023/09/10 07:14:20;;;;;;;7.68;6.65;;;;;;;14.32;70.43;99859.28;4865109;29;20050;-57
2023/09/10 07:16:46;;;;;;;8.57;6.70;;;;;;;14.33;69.94;99852.91;4865135;29;20055;-59
2023/09/10 07:19:12;;;;;;;8.70;6.53;;;;;;;14.37;69.67;99850.56;4863655;29;20053;-56
2023/09/10 07:21:38;;;;;;;8.30;6.30;;;;;;;14.46;69.82;99849.84;4865169;29;20056;-56
2023/09/10 07:24:06;;;;;;;9.88;7.07;;;;;;;14.45;69.56;99855.44;4865129;29;20049;-57
2023/09/10 07:26:41;;;;;;;8.30;6.15;;;;;;;14.27;70.13;99848.59;4865263;29;20453;-57
2023/09/10 07:29:08;;;;;;;10.32;7.03;;;;;;;14.24;70.19;99849.88;4864782;29;20525;-55
2023/09/10 07:31:34;;;;;;;9.80;6.53;;;;;;;14.25;69.99;99846.16;4865161;29;20128;-56
2023/09/10 07:34:01;;;;;;;9.55;6.20;;;;;;;14.37;69.91;99843.34;4864935;29;20062;-57
2023/09/10 07:36:27;;;;;;;8.68;6.85;;;;;;;14.56;69.89;99845.69;4863590;29;20520;-58
2023/09/10 07:38:54;;;;;;;8.18;6.80;;;;;;;14.88;69.07;99838.53;4865177;29;20076;-57
2023/09/10 07:41:21;;;;;;;9.02;7.38;;;;;;;14.96;68.08;99840.72;4864879;29;20061;-56
2023/09/10 07:43:46;;;;;;;9.80;6.78;;;;;;;15.07;68.16;99836.25;4865125;29;20559;-59
2023/09/10 07:46:12;;;;;;;9.18;7.38;;;;;;;15.18;67.55;99837.97;4863586;29;20083;-56
2023/09/10 07:48:38;;;;;;;10.43;7.20;;;;;;;15.22;66.73;99841.72;4865045;29;20430;-54
2023/09/10 07:51:04;;;;;;;8.43;6.75;;;;;;;15.32;65.91;99848.97;4864676;29;20567;-58
2023/09/10 07:53:51;;;;;;;10.13;7.15;;;;;;;15.38;65.76;99853.31;4863470;29;20045;-53
2023/09/10 07:56:20;;;;;;;8.85;6.88;;;;;;;15.37;65.64;99853.56;4832943;29;20056;-54
2023/09/10 07:58:46;;;;;;;9.13;6.75;;;;;;;15.47;65.63;99850.97;4864541;29;20049;-57
2023/09/10 08:01:11;;;;;;;9.85;6.90;;;;;;;15.55;64.80;99842.44;4848073;29;20499;-58
2023/09/10 08:03:38;;;;;;;9.05;6.90;;;;;;;15.69;64.50;99847.38;4864893;29;20038;-57
2023/09/10 08:06:04;;;;;;;10.25;6.72;;;;;;;15.79;63.70;99839.38;4863914;29;20061;-57
2023/09/10 08:08:30;;;;;;;8.98;6.60;;;;;;;15.85;63.28;99844.53;4861362;29;20552;-57
2023/09/10 08:10:56;;;;;;;7.95;6.60;;;;;;;15.92;63.42;99846.16;4860387;29;20136;-59
2023/09/10 08:13:21;;;;;;;9.00;7.13;;;;;;;16.02;63.13;99835.47;4860354;29;20125;-58
2023/09/10 08:15:47;;;;;;;11.15;7.50;;;;;;;15.93;63.13;99843.19;4861547;29;20144;-56
2023/09/10 08:18:13;;;;;;;8.45;6.95;;;;;;;15.79;64.10;99842.84;4844958;29;20046;-57
2023/09/10 08:20:41;;;;;;;9.50;7.10;;;;;;;15.78;63.44;99845.81;4861723;29;20045;-58
2023/09/10 08:23:07;;;;;;;9.60;6.70;;;;;;;15.90;62.87;99836.50;4861705;29;20049;-57
2023/09/10 08:25:33;;;;;;;9.43;6.80;;;;;;;15.92;62.66;99830.91;4860221;29;20050;-56
2023/09/10 08:27:59;;;;;;;9.93;7.80;;;;;;;15.87;63.22;99839.69;4861543;29;20052;-57
2023/09/10 08:30:25;;;;;;;9.15;8.07;;;;;;;15.88;63.19;99832.47;4861292;29;20456;-56
2023/09/10 08:32:51;;;;;;;11.25;7.85;;;;;;;15.94;63.79;99834.09;4860150;29;20045;-56
2023/09/10 08:35:20;;;;;;;8.48;5.95;;;;;;;16.04;62.35;99828.81;4860180;29;20128;-57
2023/09/10 08:37:46;;;;;;;9.95;7.30;;;;;;;16.01;62.96;99826.66;4861369;29;20476;-56
2023/09/10 08:40:12;;;;;;;10.70;7.30;;;;;;;15.90;62.76;99822.31;4864719;29;20065;-55
2023/09/10 08:43:05;;;;;;;8.80;7.22;;;;;;;15.78;62.58;99821.75;4861285;29;20045;-56
2023/09/10 08:45:31;;;;;;;9.63;7.63;;;;;;;15.75;62.94;99811.59;4861115;29;20088;-59
2023/09/10 08:47:57;;;;;;;10.85;8.55;;;;;;;15.75;62.99;99807.03;4844521;29;20076;-56
2023/09/10 08:50:23;;;;;;;10.45;8.40;;;;;;;15.80;63.34;99811.63;4859810;29;20049;-56
2023/09/10 08:52:49;;;;;;;10.70;7.03;;;;;;;15.81;63.09;99815.88;4844391;29;20104;-55
2023/09/10 08:55:15;;;;;;;7.95;5.93;;;;;;;15.80;61.69;99801.72;4860096;29;20412;-58
2023/09/10 08:57:42;;;;;;;7.97;5.82;;;;;;;15.89;61.66;99813.50;4859702;29;20496;-55
2023/09/10 09:00:12;;;;;;;9.50;6.32;;;;;;;15.92;62.13;99801.50;4861114;29;20059;-56
2023/09/10 09:02:40;;;;;;;6.82;5.90;;;;;;;15.94;62.43;99807.34;4859771;29;20185;-55
2023/09/10 09:05:06;;;;;;;8.52;6.55;;;;;;;16.00;62.00;99805.50;4859545;29;20041;-56
2023/09/10 09:07:46;;;;;;;10.00;6.55;;;;;;;16.14;61.47;99803.94;4860763;29;20511;-58
2023/09/10 09:10:17;;;;;;;7.70;5.53;;;;;;;16.34;60.66;99805.88;4860625;29;20512;-55
2023/09/10 09:12:42;;;;;;;;;;;;;;;16.32;60.62;99794.63;4844641;29;20060;-58
2023/09/10 09:15:09;;;;;;;8.98;5.60;;;;;;;16.15;61.53;99802.06;4859421;29;19928;-56
2023/09/10 09:17:37;;;;;;;6.68;5.63;;;;;;;16.10;61.71;99805.56;4843909;29;20420;-56
2023/09/10 09:20:04;;;;;;;8.18;5.85;;;;;;;16.10;60.66;99790.31;4860785;29;20424;-57
2023/09/10 09:22:31;;;;;;;6.20;4.80;;;;;;;16.09;59.07;99791.38;4828832;29;20041;-56
2023/09/10 09:24:57;;;;;;;7.20;5.03;;;;;;;16.08;60.74;99803.13;4844245;29;20428;-55
2023/09/10 09:27:24;;;;;;;7.65;4.95;;;;;;;16.09;60.26;99799.41;4860268;29;20041;-58
2023/09/10 09:29:50;;;;;;;6.45;4.95;;;;;;;16.18;60.58;99794.34;4860301;29;20057;-57
2023/09/10 09:32:16;;;;;;;5.43;4.65;;;;;;;16.16;59.90;99793.00;4859325;29;20412;-57
2023/09/10 09:34:41;;;;;;;6.22;5.20;;;;;;;16.06;60.19;99793.75;4860213;29;20050;-56
2023/09/10 09:37:07;;;;;;;6.28;4.65;;;;;;;16.08;59.97;99789.75;4860286;29;20041;-56
2023/09/10 09:39:33;;;;;;;8.02;5.00;;;;;;;16.08;60.61;99789.75;4860470;29;20045;-57
2023/09/10 09:41:58;;;;;;;5.53;4.50;;;;;;;16.17;61.13;99782.03;4860080;29;20061;-57
2023/09/10 09:44:25;;;;;;;5.97;4.88;;;;;;;16.24;60.56;99774.56;4860379;29;20500;-58
2023/09/10 09:46:56;;;;;;;6.28;5.10;;;;;;;16.28;60.31;99782.84;4860104;29;20473;-56
2023/09/10 09:49:21;;;;;;;5.95;5.00;;;;;;;16.30;60.35;99784.22;4859851;29;20053;-55
2023/09/10 09:51:47;;;;;;;6.18;4.32;;;;;;;16.34;60.51;99787.94;4860225;29;20056;-57
2023/09/10 09:54:12;;;;;;;6.43;4.60;;;;;;;16.37;59.63;99775.91;4858929;29;20045;-59
2023/09/10 09:56:38;;;;;;;7.95;5.07;;;;;;;16.25;60.21;99780.72;4858764;29;20049;-55
2023/09/10 09:59:04;;;;;;;6.53;4.57;;;;;;;16.25;60.91;99776.16;4859857;29;20423;-55
2023/09/10 10:01:30;;;;;;;6.35;4.82;;;;;;;16.25;60.33;99770.81;4859015;29;20041;-54
2023/09/10 10:03:59;;;;;;;6.13;4.53;;;;;;;16.18;60.34;99772.94;4858763;29;20050;-59
2023/09/10 10:06:25;;;;;;;5.43;4.10;;;;;;;16.17;59.41;99782.03;4859895;29;20041;-57
2023/09/10 10:08:51;;;;;;;7.15;4.13;;;;;;;16.13;59.37;99786.31;4859967;29;20136;-58
2023/09/10 10:11:28;;;;;;;6.25;3.95;;;;;;;16.19;59.51;99766.53;4860660;29;20055;-57
2023/09/10 10:13:54;;;;;;;5.80;3.90;;;;;;;16.19;59.41;99763.06;4860330;29;20128;-59
2023/09/10 10:16:20;;;;;;;5.20;4.03;;;;;;;16.18;58.08;99766.78;4859776;29;20507;-55
2023/09/10 10:18:47;;;;;;;5.45;4.00;;;;;;;16.13;58.78;99773.75;4860030;29;20108;-56
2023/09/10 10:21:13;;;;;;;4.80;3.75;;;;;;;16.22;58.83;99763.31;4859645;29;20084;-57
2023/09/10 10:23:39;;;;;;;5.43;3.35;;;;;;;16.28;59.05;99764.94;4858371;29;20081;-57
2023/09/10 10:26:06;;;;;;;4.40;3.72;;;;;;;16.28;58.65;99764.13;4858493;29;20054;-59
2023/09/10 10:28:34;;;;;;;5.65;3.65;;;;;;;16.26;58.61;99752.88;4859680;29;20053;-57
2023/09/10 10:31:07;;;;;;;3.95;3.42;;;;;;;16.29;58.01;99750.47;4857588;29;20057;-56
2023/09/10 10:33:34;;;;;;;5.47;3.58;;;;;;;16.32;58.46;99743.78;4858314;29;20456;-56
2023/09/10 10:36:40;;;;;;;3.92;3.38;;;;;;;16.38;57.83;99749.97;4858522;29;20101;-57
2023/09/10 10:39:09;;;;;;;4.55;3.40;;;;;;;16.42;57.53;99737.66;4858019;29;20049;-58
2023/09/10 10:41:41;;;;;;;4.65;3.53;;;;;;;16.43;57.57;99737.38;4859307;29;20405;-56
2023/09/10 10:44:20;;;;;;;3.35;3.05;;;;;;;16.37;56.92;99738.47;4860788;29;20433;-56
2023/09/10 10:46:50;;;;;;;4.32;3.38;;;;;;;16.45;57.12;99737.13;4859690;29;20054;-55
2023/09/10 10:49:16;;;;;;;4.65;3.72;;;;;;;16.45;57.11;99729.09;4858686;29;20136;-59
2023/09/10 10:51:46;;;;;;;4.93;3.83;;;;;;;16.47;57.64;99733.13;4858976;29;20132;-57
2023/09/10 10:54:13;;;;;;;4.38;3.40;;;;;;;16.51;57.88;99726.16;4842877;29;20045;-57
2023/09/10 10:56:39;;;;;;;5.18;3.75;;;;;;;16.53;58.36;99726.69;4858110;29;20137;-58
2023/09/10 10:59:04;;;;;;;5.03;3.83;;;;;;;16.57;57.59;99729.63;4859047;29;20136;-55
2023/09/10 11:01:30;;;;;;;5.90;3.33;;;;;;;16.62;57.11;99721.63;4827471;29;20125;-58
2023/09/10 11:03:56;;;;;;;3.97;3.33;;;;;;;16.60;56.58;99721.06;4859417;29;20069;-58
2023/09/10 11:06:21;;;;;;;4.35;3.40;;;;;;;16.58;56.29;99721.31;4859111;29;20543;-58
2023/09/10 11:08:48;;;;;;;5.03;3.60;;;;;;;16.61;56.30;99713.84;4858842;29;20110;-58
2023/09/10 11:11:36;;;;;;;5.53;3.30;;;;;;;16.65;56.61;99715.72;4858892;29;20132;-59
2023/09/10 11:14:05;;;;;;;3.80;3.40;;;;;;;16.72;56.79;99715.44;4858866;29;20105;-58
2023/09/10 11:16:31;;;;;;;5.78;3.33;;;;;;;16.72;56.97;99716.22;4858212;29;20042;-56
2023/09/10 11:18:58;;;;;;;4.10;3.05;;;;;;;16.73;56.44;99714.34;4859193;29;20108;-54
2023/09/10 11:21:55;;;;;;;3.88;3.35;;;;;;;16.77;56.27;99707.44;4857487;29;20062;-59
2023/09/10 11:24:21;;;;;;;7.22;3.65;;;;;;;16.82;55.97;99709.28;4858878;29;20140;-57
2023/09/10 11:26:47;;;;;;;6.55;3.22;;;;;;;16.77;55.36;99692.19;4859084;29;20205;-58
2023/09/10 11:29:17;;;;;;;4.13;3.20;;;;;;;16.76;55.00;99698.59;4858635;29;20061;-58